createdAt,value
2022-09-23T00:00:12.631Z,10.68
2022-09-23T00:00:44.890Z,10.80
2022-09-23T00:01:16.599Z,10.68
2022-09-23T00:01:48.190Z,10.45
2022-09-23T00:02:20.809Z,11.15
2022-09-23T00:02:52.516Z,10.10
2022-09-23T00:03:23.883Z,11.00
2022-09-23T00:03:56.298Z,10.80
2022-09-23T00:04:27.797Z,10.52
2022-09-23T00:04:59.138Z,10.90
2022-09-23T00:05:33.487Z,10.50
2022-09-23T00:06:07.609Z,10.23
2022-09-23T00:06:39.764Z,9.77
2022-09-23T00:07:11.125Z,10.25
2022-09-23T00:07:42.444Z,10.80
2022-09-23T00:08:13.796Z,10.50
2022-09-23T00:08:45.252Z,10.55
2022-09-23T00:09:16.582Z,10.82
2022-09-23T00:09:47.899Z,10.52
2022-09-23T00:10:19.248Z,10.77
2022-09-23T00:10:50.907Z,10.23
2022-09-23T00:11:25.199Z,10.48
2022-09-23T00:11:56.583Z,10.38
2022-09-23T00:12:28.118Z,11.35
2022-09-23T00:12:59.644Z,9.45
2022-09-23T00:13:30.995Z,9.77
2022-09-23T00:14:02.438Z,10.55
2022-09-23T00:14:33.821Z,9.98
2022-09-23T00:15:05.662Z,11.43
2022-09-23T00:15:40.109Z,11.13
2022-09-23T00:16:14.856Z,9.90
2022-09-23T00:16:46.256Z,10.45
2022-09-23T00:17:17.818Z,9.52
2022-09-23T00:17:49.174Z,10.40
2022-09-23T00:18:21.010Z,9.43
2022-09-23T00:18:52.488Z,10.27
2022-09-23T00:19:23.825Z,9.80
2022-09-23T00:19:55.344Z,10.48
2022-09-23T00:20:26.735Z,12.77
2022-09-23T00:20:58.140Z,11.60
2022-09-23T00:21:29.883Z,10.25
2022-09-23T00:22:01.234Z,10.23
2022-09-23T00:22:33.593Z,10.18
2022-09-23T00:23:04.957Z,10.50
2022-09-23T00:23:36.686Z,10.43
2022-09-23T00:24:08.531Z,10.90
2022-09-23T00:24:40.163Z,11.15
2022-09-23T00:25:12.017Z,10.50
2022-09-23T00:25:43.450Z,11.75
2022-09-23T00:26:16.848Z,11.20
2022-09-23T00:26:48.246Z,10.15
2022-09-23T00:27:21.425Z,10.93
2022-09-23T00:27:53.837Z,11.95
2022-09-23T00:28:25.202Z,11.85
2022-09-23T00:28:56.615Z,10.40
2022-09-23T00:29:27.951Z,11.07
2022-09-23T00:29:59.882Z,10.88
2022-09-23T00:30:32.280Z,11.50
2022-09-23T00:31:10.034Z,12.68
2022-09-23T00:31:41.955Z,10.85
2022-09-23T00:32:13.801Z,11.13
2022-09-23T00:32:45.158Z,11.40
2022-09-23T00:33:16.567Z,11.80
2022-09-23T00:33:52.935Z,10.60
2022-09-23T00:34:24.428Z,11.98
2022-09-23T00:34:56.010Z,11.70
2022-09-23T00:35:27.582Z,10.65
2022-09-23T00:36:03.883Z,11.60
2022-09-23T00:36:35.288Z,11.57
2022-09-23T00:37:06.666Z,12.13
2022-09-23T00:37:38.270Z,11.80
2022-09-23T00:38:09.853Z,11.13
2022-09-23T00:38:41.964Z,10.57
2022-09-23T00:39:13.907Z,11.75
2022-09-23T00:39:46.224Z,10.93
2022-09-23T00:40:17.791Z,10.90
2022-09-23T00:40:49.789Z,11.32
2022-09-23T00:41:21.699Z,11.35
2022-09-23T00:41:54.135Z,12.60
2022-09-23T00:42:25.572Z,12.57
2022-09-23T00:42:56.999Z,12.15
2022-09-23T00:43:49.026Z,10.95
2022-09-23T00:44:41.765Z,10.48
2022-09-23T00:45:13.360Z,10.93
2022-09-23T00:45:51.176Z,11.75
2022-09-23T00:46:28.563Z,10.57
2022-09-23T00:47:00.177Z,10.57
2022-09-23T00:47:38.897Z,10.75
2022-09-23T00:48:17.542Z,11.25
2022-09-23T00:48:55.527Z,11.15
2022-09-23T00:49:30.486Z,11.27
2022-09-23T00:50:21.104Z,11.23
2022-09-23T00:50:54.741Z,11.98
2022-09-23T00:51:32.679Z,11.43
2022-09-23T00:52:12.703Z,11.90
2022-09-23T00:52:44.808Z,10.53
2022-09-23T00:53:21.312Z,11.18
2022-09-23T00:53:52.952Z,10.57
2022-09-23T00:54:27.599Z,11.70
2022-09-23T00:55:02.586Z,11.10
2022-09-23T00:55:43.042Z,10.75
2022-09-23T00:56:15.257Z,11.18
2022-09-23T00:56:46.624Z,10.38
2022-09-23T00:57:20.125Z,12.13
2022-09-23T00:57:55.648Z,11.00
2022-09-23T00:58:31.700Z,11.27
2022-09-23T00:59:03.464Z,11.05
2022-09-23T00:59:36.054Z,10.57
2022-09-23T01:00:08.473Z,10.98
2022-09-23T01:00:39.849Z,11.25
2022-09-23T01:01:14.334Z,11.27
2022-09-23T01:01:46.366Z,11.57
2022-09-23T01:02:21.028Z,11.38
2022-09-23T01:02:52.706Z,11.77
2022-09-23T01:03:24.157Z,11.73
2022-09-23T01:03:56.926Z,12.17
2022-09-23T01:04:29.750Z,11.15
2022-09-23T01:05:03.499Z,11.63
2022-09-23T01:05:36.564Z,12.00
2022-09-23T01:06:08.842Z,12.13
2022-09-23T01:06:40.868Z,12.32
2022-09-23T01:07:13.617Z,11.65
2022-09-23T01:07:46.111Z,12.13
2022-09-23T01:08:19.074Z,12.82
2022-09-23T01:08:51.431Z,11.82
2022-09-23T01:09:24.216Z,11.17
2022-09-23T01:09:57.480Z,11.63
2022-09-23T01:10:42.331Z,11.60
2022-09-23T01:11:31.768Z,12.48
2022-09-23T01:12:41.105Z,11.40
2022-09-23T01:13:26.618Z,10.63
2022-09-23T01:14:07.629Z,11.00
2022-09-23T01:15:05.596Z,11.63
2022-09-23T01:15:49.793Z,10.98
2022-09-23T01:16:39.681Z,10.88
2022-09-23T01:17:24.408Z,10.67
2022-09-23T01:18:08.220Z,11.85
2022-09-23T01:18:49.255Z,11.07
2022-09-23T01:19:38.190Z,12.43
2022-09-23T01:20:37.306Z,10.98
2022-09-23T01:21:23.800Z,11.52
2022-09-23T01:22:09.120Z,11.48
2022-09-23T01:23:02.096Z,11.95
2022-09-23T01:23:36.131Z,11.73
2022-09-23T01:24:19.563Z,12.10
2022-09-23T01:25:15.663Z,11.97
2022-09-23T01:26:05.627Z,11.90
2022-09-23T01:27:04.549Z,10.30
2022-09-23T01:28:07.694Z,11.98
2022-09-23T01:29:36.021Z,10.70
2022-09-23T01:30:16.753Z,10.43
2022-09-23T01:31:04.814Z,11.38
2022-09-23T01:31:58.635Z,11.40
2022-09-23T01:32:32.549Z,11.80
2022-09-23T01:33:20.002Z,11.52
2022-09-23T01:34:09.607Z,11.53
2022-09-23T01:35:09.946Z,11.45
2022-09-23T01:36:29.100Z,11.52
2022-09-23T01:37:32.697Z,11.77
2022-09-23T01:38:29.219Z,13.45
2022-09-23T01:39:10.669Z,10.70
2022-09-23T01:39:51.132Z,11.38
2022-09-23T01:40:26.215Z,11.70
2022-09-23T01:41:20.242Z,11.45
2022-09-23T01:42:03.023Z,10.98
2022-09-23T01:42:54.284Z,10.10
2022-09-23T01:43:38.587Z,10.18
2022-09-23T01:44:18.228Z,10.32
2022-09-23T01:44:54.941Z,11.57
2022-09-23T01:45:36.013Z,11.23
2022-09-23T01:46:19.518Z,10.45
2022-09-23T01:46:58.797Z,11.75
2022-09-23T01:47:35.668Z,11.40
2022-09-23T01:48:18.242Z,10.88
2022-09-23T01:48:56.531Z,10.02
2022-09-23T01:49:39.630Z,10.77
2022-09-23T01:50:42.781Z,10.52
2022-09-23T01:51:23.852Z,11.48
2022-09-23T01:52:11.441Z,11.45
2022-09-23T01:52:47.229Z,11.60
2022-09-23T01:53:39.160Z,10.40
2022-09-23T01:54:26.004Z,9.40
2022-09-23T01:55:13.967Z,11.15
2022-09-23T01:55:50.644Z,11.25
2022-09-23T01:56:35.432Z,10.20
2022-09-23T01:57:16.191Z,10.67
2022-09-23T01:57:56.499Z,11.43
2022-09-23T01:59:01.618Z,10.75
2022-09-23T01:59:38.231Z,9.98
2022-09-23T02:00:14.122Z,10.05
2022-09-23T02:01:07.301Z,11.35
2022-09-23T02:01:52.088Z,9.57
2022-09-23T02:02:32.165Z,11.43
2022-09-23T02:03:17.030Z,10.00
2022-09-23T02:03:55.781Z,10.32
2022-09-23T02:04:33.461Z,10.47
2022-09-23T02:05:14.800Z,10.90
2022-09-23T02:05:57.050Z,11.27
2022-09-23T02:06:35.337Z,10.50
2022-09-23T02:07:15.088Z,10.50
2022-09-23T02:08:00.460Z,10.25
2022-09-23T02:08:37.989Z,11.27
2022-09-23T02:09:16.588Z,10.15
2022-09-23T02:09:56.124Z,10.38
2022-09-23T02:10:35.951Z,10.55
2022-09-23T02:11:10.496Z,9.73
2022-09-23T02:11:46.032Z,9.45
2022-09-23T02:12:21.120Z,10.02
2022-09-23T02:12:58.049Z,11.02
2022-09-23T02:13:41.979Z,10.13
2022-09-23T02:14:19.026Z,8.95
2022-09-23T02:14:57.254Z,10.07
2022-09-23T02:15:44.813Z,10.05
2022-09-23T02:16:26.473Z,9.80
2022-09-23T02:17:03.431Z,9.50
2022-09-23T02:17:43.904Z,10.60
2022-09-23T02:18:21.866Z,9.73
2022-09-23T02:19:00.399Z,9.30
2022-09-23T02:19:52.596Z,9.88
2022-09-23T02:20:30.594Z,9.10
2022-09-23T02:21:07.092Z,8.40
2022-09-23T02:21:43.112Z,8.80
2022-09-23T02:22:26.446Z,10.00
2022-09-23T02:23:19.374Z,10.05
2022-09-23T02:24:17.660Z,8.50
2022-09-23T02:24:49.450Z,9.63
2022-09-23T02:25:26.497Z,10.02
2022-09-23T02:26:35.248Z,10.48
2022-09-23T02:27:32.353Z,9.73
2022-09-23T02:28:17.283Z,10.40
2022-09-23T02:29:01.162Z,9.55
2022-09-23T02:29:48.848Z,9.95
2022-09-23T02:30:27.072Z,10.23
2022-09-23T02:31:08.722Z,9.38
2022-09-23T02:32:12.564Z,8.80
2022-09-23T02:32:43.913Z,9.23
2022-09-23T02:33:25.387Z,9.80
2022-09-23T02:34:12.757Z,10.35
2022-09-23T02:34:52.808Z,10.68
2022-09-23T02:35:33.426Z,10.52
2022-09-23T02:36:17.908Z,9.63
2022-09-23T02:37:06.661Z,10.48
2022-09-23T02:38:04.051Z,8.93
2022-09-23T02:38:44.543Z,9.65
2022-09-23T02:39:19.562Z,9.57
2022-09-23T02:39:50.901Z,10.30
2022-09-23T02:40:38.499Z,10.25
2022-09-23T02:41:20.372Z,10.38
2022-09-23T02:42:02.424Z,10.18
2022-09-23T02:42:45.765Z,9.77
2022-09-23T02:43:35.363Z,10.40
2022-09-23T02:44:10.238Z,10.23
2022-09-23T02:44:41.849Z,10.15
2022-09-23T02:45:13.446Z,11.07
2022-09-23T02:45:45.200Z,10.70
2022-09-23T02:46:17.705Z,10.40
2022-09-23T02:46:53.057Z,10.82
2022-09-23T02:47:31.242Z,11.15
2022-09-23T02:48:07.697Z,11.13
2022-09-23T02:49:21.411Z,11.18
2022-09-23T02:49:53.480Z,9.57
2022-09-23T02:50:25.209Z,11.32
2022-09-23T02:50:57.841Z,10.25
2022-09-23T02:51:29.367Z,10.25
2022-09-23T02:52:04.720Z,9.80
2022-09-23T02:52:39.194Z,10.43
2022-09-23T02:53:10.682Z,10.25
2022-09-23T02:53:43.020Z,10.30
2022-09-23T02:54:18.497Z,10.25
2022-09-23T02:54:49.982Z,10.43
2022-09-23T02:55:25.177Z,10.63
2022-09-23T02:55:56.729Z,10.35
2022-09-23T02:56:28.650Z,10.05
2022-09-23T02:57:02.708Z,10.77
2022-09-23T02:57:34.827Z,10.27
2022-09-23T02:58:06.267Z,11.90
2022-09-23T02:58:37.607Z,9.38
2022-09-23T02:59:09.982Z,10.27
2022-09-23T02:59:41.710Z,10.98
2022-09-23T03:00:13.810Z,10.48
2022-09-23T03:01:06.342Z,10.40
2022-09-23T03:02:13.928Z,10.25
2022-09-23T03:03:20.351Z,10.13
2022-09-23T03:04:18.951Z,10.15
2022-09-23T03:05:03.819Z,9.48
2022-09-23T03:05:42.453Z,8.83
2022-09-23T03:06:39.732Z,11.25
2022-09-23T03:07:19.476Z,9.52
2022-09-23T03:08:16.588Z,11.68
2022-09-23T03:08:57.520Z,10.25
2022-09-23T03:09:33.226Z,11.10
2022-09-23T03:10:15.377Z,10.75
2022-09-23T03:11:08.245Z,11.02
2022-09-23T03:11:44.755Z,10.07
2022-09-23T03:12:47.810Z,10.10
2022-09-23T03:13:29.381Z,10.63
2022-09-23T03:14:04.984Z,9.93
2022-09-23T03:14:44.258Z,10.52
2022-09-23T03:15:18.956Z,10.25
2022-09-23T03:16:02.607Z,10.27
2022-09-23T03:16:47.967Z,11.25
2022-09-23T03:17:34.853Z,10.65
2022-09-23T03:18:47.344Z,10.57
2022-09-23T03:19:36.541Z,10.40
2022-09-23T03:20:13.956Z,9.20
2022-09-23T03:20:50.447Z,9.63
2022-09-23T03:22:02.999Z,9.90
2022-09-23T03:22:40.563Z,9.13
2022-09-23T03:23:15.145Z,10.45
2022-09-23T03:23:48.219Z,10.60
2022-09-23T03:24:21.995Z,10.93
2022-09-23T03:24:59.831Z,9.60
2022-09-23T03:25:35.746Z,9.85
2022-09-23T03:26:12.607Z,10.88
2022-09-23T03:26:47.146Z,9.95
2022-09-23T03:27:23.894Z,10.20
2022-09-23T03:27:58.817Z,10.20
2022-09-23T03:28:31.155Z,9.50
2022-09-23T03:29:05.153Z,11.30
2022-09-23T03:29:37.032Z,10.25
2022-09-23T03:30:09.485Z,10.23
2022-09-23T03:30:43.490Z,10.57
2022-09-23T03:31:15.285Z,10.38
2022-09-23T03:31:47.368Z,10.63
2022-09-23T03:32:23.343Z,10.02
2022-09-23T03:32:57.018Z,10.13
2022-09-23T03:33:29.065Z,10.15
2022-09-23T03:34:03.293Z,9.82
2022-09-23T03:34:37.485Z,10.30
2022-09-23T03:35:09.130Z,10.05
2022-09-23T03:36:12.952Z,10.30
2022-09-23T03:37:00.681Z,9.88
2022-09-23T03:38:11.150Z,9.73
2022-09-23T03:38:50.057Z,10.13
2022-09-23T03:39:31.608Z,9.18
2022-09-23T03:40:20.526Z,9.77
2022-09-23T03:40:55.542Z,9.90
2022-09-23T03:41:32.868Z,10.13
2022-09-23T03:42:12.491Z,10.38
2022-09-23T03:42:43.822Z,11.02
2022-09-23T03:43:15.984Z,9.52
2022-09-23T03:43:47.725Z,9.82
2022-09-23T03:44:20.864Z,9.85
2022-09-23T03:44:54.374Z,10.85
2022-09-23T03:45:31.823Z,10.10
2022-09-23T03:46:03.301Z,10.13
2022-09-23T03:46:36.008Z,9.80
2022-09-23T03:47:07.597Z,9.50
2022-09-23T03:47:39.326Z,10.55
2022-09-23T03:48:10.892Z,10.05
2022-09-23T03:48:42.418Z,10.40
2022-09-23T03:49:24.235Z,9.07
2022-09-23T03:49:56.910Z,11.95
2022-09-23T03:50:28.952Z,10.52
2022-09-23T03:51:17.751Z,9.55
2022-09-23T03:51:49.105Z,10.20
2022-09-23T03:52:22.968Z,9.30
2022-09-23T03:52:54.324Z,9.80
2022-09-23T03:53:25.767Z,9.68
2022-09-23T03:53:57.438Z,10.98
2022-09-23T03:54:29.917Z,10.20
2022-09-23T03:55:01.385Z,9.95
2022-09-23T03:55:34.713Z,11.05
2022-09-23T03:56:06.048Z,10.02
2022-09-23T03:56:37.731Z,10.27
2022-09-23T03:57:11.524Z,9.37
2022-09-23T03:57:43.255Z,9.45
2022-09-23T03:58:14.619Z,10.27
2022-09-23T03:58:46.471Z,10.93
2022-09-23T03:59:17.840Z,11.50
2022-09-23T03:59:53.048Z,9.98
2022-09-23T04:00:24.362Z,9.73
2022-09-23T04:00:57.665Z,10.27
2022-09-23T04:01:29.642Z,9.75
2022-09-23T04:02:01.765Z,9.85
2022-09-23T04:02:33.797Z,9.83
2022-09-23T04:03:10.934Z,10.20
2022-09-23T04:03:43.378Z,9.80
2022-09-23T04:04:14.920Z,10.00
2022-09-23T04:04:46.362Z,10.90
2022-09-23T04:05:18.166Z,9.45
2022-09-23T04:05:49.588Z,9.25
2022-09-23T04:06:21.195Z,9.75
2022-09-23T04:06:52.544Z,10.93
2022-09-23T04:07:23.955Z,9.80
2022-09-23T04:07:55.488Z,10.13
2022-09-23T04:08:27.266Z,10.57
2022-09-23T04:08:58.884Z,10.60
2022-09-23T04:09:30.601Z,10.07
2022-09-23T04:10:02.027Z,10.25
2022-09-23T04:10:33.387Z,8.55
2022-09-23T04:11:05.055Z,10.20
2022-09-23T04:11:37.377Z,9.70
2022-09-23T04:12:13.098Z,10.45
2022-09-23T04:12:44.530Z,9.80
2022-09-23T04:13:16.210Z,9.13
2022-09-23T04:13:47.582Z,9.73
2022-09-23T04:14:20.585Z,10.38
2022-09-23T04:14:51.961Z,10.70
2022-09-23T04:15:24.880Z,9.70
2022-09-23T04:15:56.525Z,10.00
2022-09-23T04:16:28.005Z,10.07
2022-09-23T04:16:59.453Z,10.70
2022-09-23T04:17:30.780Z,10.30
2022-09-23T04:18:02.103Z,10.25
2022-09-23T04:18:33.481Z,10.57
2022-09-23T04:19:05.171Z,10.85
2022-09-23T04:19:37.156Z,10.35
2022-09-23T04:20:09.176Z,11.00
2022-09-23T04:20:40.697Z,10.70
2022-09-23T04:21:12.089Z,10.50
2022-09-23T04:21:44.430Z,11.02
2022-09-23T04:22:15.765Z,10.82
2022-09-23T04:22:47.137Z,10.93
2022-09-23T04:23:18.455Z,11.13
2022-09-23T04:23:50.094Z,11.33
2022-09-23T04:24:22.166Z,10.35
2022-09-23T04:24:53.717Z,10.75
2022-09-23T04:25:25.054Z,10.85
2022-09-23T04:25:56.464Z,11.15
2022-09-23T04:26:27.814Z,10.85
2022-09-23T04:26:59.747Z,10.38
2022-09-23T04:27:35.476Z,10.55
2022-09-23T04:28:08.934Z,11.35
2022-09-23T04:28:40.680Z,9.82
2022-09-23T04:29:12.070Z,10.73
2022-09-23T04:29:43.410Z,11.77
2022-09-23T04:30:14.906Z,10.23
2022-09-23T04:30:47.223Z,11.00
2022-09-23T04:31:18.632Z,10.52
2022-09-23T04:31:51.129Z,11.02
2022-09-23T04:32:22.613Z,10.38
2022-09-23T04:32:54.175Z,10.65
2022-09-23T04:33:25.718Z,11.32
2022-09-23T04:33:57.289Z,10.63
2022-09-23T04:34:28.627Z,10.90
2022-09-23T04:35:00.200Z,10.45
2022-09-23T04:35:31.554Z,11.10
2022-09-23T04:36:02.880Z,10.48
2022-09-23T04:36:34.808Z,10.73
2022-09-23T04:37:06.143Z,11.13
2022-09-23T04:37:37.470Z,11.93
2022-09-23T04:38:12.067Z,11.13
2022-09-23T04:38:45.052Z,10.70
2022-09-23T04:39:17.129Z,10.98
2022-09-23T04:39:48.497Z,11.33
2022-09-23T04:40:19.890Z,11.43
2022-09-23T04:40:51.423Z,10.77
2022-09-23T04:41:23.124Z,10.38
2022-09-23T04:41:54.539Z,12.00
2022-09-23T04:42:29.367Z,10.63
2022-09-23T04:43:00.725Z,10.77
2022-09-23T04:43:32.091Z,12.25
2022-09-23T04:44:04.209Z,12.80
2022-09-23T04:44:35.679Z,11.52
2022-09-23T04:45:07.648Z,10.93
2022-09-23T04:45:39.422Z,11.20
2022-09-23T04:46:13.542Z,12.13
2022-09-23T04:46:48.221Z,11.27
2022-09-23T04:47:19.739Z,12.38
2022-09-23T04:47:51.400Z,10.80
2022-09-23T04:48:22.721Z,11.45
2022-09-23T04:48:54.237Z,12.18
2022-09-23T04:49:26.166Z,11.40
2022-09-23T04:49:59.867Z,11.80
2022-09-23T04:50:33.675Z,11.73
2022-09-23T04:51:07.285Z,12.93
2022-09-23T04:51:43.220Z,10.57
2022-09-23T04:52:14.547Z,12.20
2022-09-23T04:52:46.063Z,11.80
2022-09-23T04:53:18.988Z,11.57
2022-09-23T04:53:51.995Z,11.35
2022-09-23T04:54:23.339Z,12.57
2022-09-23T04:54:54.655Z,12.20
2022-09-23T04:55:26.058Z,12.52
2022-09-23T04:56:05.692Z,12.83
2022-09-23T04:56:37.216Z,11.68
2022-09-23T04:57:11.009Z,12.35
2022-09-23T04:57:42.333Z,12.05
2022-09-23T04:58:13.677Z,11.85
2022-09-23T04:58:45.980Z,12.63
2022-09-23T04:59:17.316Z,11.93
2022-09-23T04:59:48.659Z,12.15
2022-09-23T05:00:20.062Z,12.07
2022-09-23T05:00:51.656Z,13.45
2022-09-23T05:01:27.150Z,13.20
2022-09-23T05:01:58.780Z,12.93
2022-09-23T05:02:30.882Z,13.32
2022-09-23T05:03:02.325Z,13.32
2022-09-23T05:03:35.655Z,12.88
2022-09-23T05:04:13.437Z,12.05
2022-09-23T05:04:45.002Z,13.57
2022-09-23T05:05:23.235Z,13.52
2022-09-23T05:05:59.847Z,12.32
2022-09-23T05:06:36.878Z,13.50
2022-09-23T05:07:08.233Z,12.03
2022-09-23T05:07:40.336Z,13.32
2022-09-23T05:08:11.974Z,12.73
2022-09-23T05:08:57.365Z,12.40
2022-09-23T05:09:28.718Z,12.60
2022-09-23T05:10:00.048Z,12.48
2022-09-23T05:10:31.391Z,13.07
2022-09-23T05:11:07.467Z,12.77
2022-09-23T05:11:38.794Z,12.27
2022-09-23T05:12:10.221Z,12.35
2022-09-23T05:12:41.586Z,12.83
2022-09-23T05:13:12.937Z,12.73
2022-09-23T05:13:47.565Z,11.30
2022-09-23T05:14:19.024Z,12.25
2022-09-23T05:14:50.799Z,12.65
2022-09-23T05:15:22.187Z,12.88
2022-09-23T05:16:06.571Z,12.13
2022-09-23T05:16:38.034Z,11.80
2022-09-23T05:17:09.364Z,13.70
2022-09-23T05:17:40.738Z,13.27
2022-09-23T05:18:12.075Z,12.57
2022-09-23T05:18:44.479Z,13.38
2022-09-23T05:19:15.838Z,11.63
2022-09-23T05:19:48.739Z,12.15
2022-09-23T05:20:20.641Z,13.15
2022-09-23T05:20:55.557Z,11.80
2022-09-23T05:21:30.158Z,12.18
2022-09-23T05:22:01.505Z,12.98
2022-09-23T05:22:32.872Z,13.25
2022-09-23T05:23:04.242Z,12.52
2022-09-23T05:23:36.022Z,11.70
2022-09-23T05:24:07.389Z,13.05
2022-09-23T05:24:38.735Z,12.07
2022-09-23T05:25:10.154Z,13.25
2022-09-23T05:25:42.411Z,12.73
2022-09-23T05:26:14.016Z,12.52
2022-09-23T05:26:45.645Z,12.20
2022-09-23T05:27:16.989Z,13.90
2022-09-23T05:27:48.297Z,13.15
2022-09-23T05:28:19.938Z,13.18
2022-09-23T05:28:51.948Z,13.17
2022-09-23T05:29:23.269Z,13.48
2022-09-23T05:29:55.009Z,12.27
2022-09-23T05:30:26.543Z,12.70
2022-09-23T05:31:06.139Z,13.48
2022-09-23T05:31:37.527Z,10.88
2022-09-23T05:32:09.869Z,12.68
2022-09-23T05:32:41.331Z,12.75
2022-09-23T05:33:13.113Z,13.30
2022-09-23T05:33:47.341Z,12.68
2022-09-23T05:34:18.651Z,12.23
2022-09-23T05:34:50.009Z,12.50
2022-09-23T05:35:21.525Z,12.13
2022-09-23T05:35:53.392Z,12.40
2022-09-23T05:36:26.093Z,13.63
2022-09-23T05:36:58.298Z,11.45
2022-09-23T05:37:29.668Z,11.88
2022-09-23T05:38:00.998Z,12.82
2022-09-23T05:38:33.045Z,12.90
2022-09-23T05:39:04.819Z,12.35
2022-09-23T05:39:36.630Z,12.80
2022-09-23T05:40:08.358Z,12.90
2022-09-23T05:40:39.949Z,12.32
2022-09-23T05:41:13.598Z,13.63
2022-09-23T05:41:45.721Z,13.43
2022-09-23T05:42:20.895Z,12.43
2022-09-23T05:42:52.487Z,13.07
2022-09-23T05:43:24.785Z,12.48
2022-09-23T05:43:56.794Z,12.80
2022-09-23T05:44:28.229Z,13.05
2022-09-23T05:44:59.627Z,14.03
2022-09-23T05:45:32.004Z,12.25
2022-09-23T05:46:08.185Z,13.15
2022-09-23T05:46:39.846Z,12.02
2022-09-23T05:47:11.238Z,13.48
2022-09-23T05:47:44.017Z,12.10
2022-09-23T05:48:15.345Z,12.93
2022-09-23T05:48:47.431Z,13.05
2022-09-23T05:49:18.768Z,12.38
2022-09-23T05:49:59.566Z,11.95
2022-09-23T05:50:31.632Z,11.63
2022-09-23T05:51:03.832Z,12.38
2022-09-23T05:51:35.829Z,12.63
2022-09-23T05:52:07.281Z,11.50
2022-09-23T05:52:38.952Z,12.00
2022-09-23T05:53:10.262Z,11.70
2022-09-23T05:53:44.779Z,13.27
2022-09-23T05:54:16.101Z,12.95
2022-09-23T05:54:47.463Z,12.18
2022-09-23T05:55:18.874Z,12.55
2022-09-23T05:55:50.270Z,11.97
2022-09-23T05:56:24.352Z,13.23
2022-09-23T05:56:55.730Z,12.25
2022-09-23T05:57:27.205Z,14.82
2022-09-23T05:57:58.634Z,13.48
2022-09-23T05:58:30.145Z,12.35
2022-09-23T05:59:02.353Z,13.25
2022-09-23T05:59:33.796Z,14.43
2022-09-23T06:00:05.863Z,13.02
2022-09-23T06:00:39.930Z,12.85
2022-09-23T06:01:14.102Z,12.53
2022-09-23T06:01:45.528Z,12.00
2022-09-23T06:02:17.369Z,13.05
2022-09-23T06:02:49.226Z,13.40
2022-09-23T06:03:20.968Z,14.40
2022-09-23T06:03:56.617Z,13.00
2022-09-23T06:04:27.952Z,13.45
2022-09-23T06:04:59.265Z,13.75
2022-09-23T06:05:31.131Z,13.82
2022-09-23T06:06:02.498Z,12.65
2022-09-23T06:06:36.725Z,12.77
2022-09-23T06:07:08.577Z,13.70
2022-09-23T06:07:39.911Z,12.52
2022-09-23T06:08:11.739Z,13.52
2022-09-23T06:08:43.469Z,13.70
2022-09-23T06:09:15.069Z,12.93
2022-09-23T06:09:46.494Z,13.77
2022-09-23T06:10:17.909Z,13.82
2022-09-23T06:10:53.540Z,13.63
2022-09-23T06:11:26.741Z,12.07
2022-09-23T06:11:58.067Z,12.63
2022-09-23T06:12:29.409Z,14.05
2022-09-23T06:13:00.758Z,14.23
2022-09-23T06:13:32.139Z,13.18
2022-09-23T06:14:04.182Z,14.10
2022-09-23T06:14:36.358Z,13.73
2022-09-23T06:15:08.109Z,13.70
2022-09-23T06:15:39.541Z,13.68
2022-09-23T06:16:14.085Z,13.73
2022-09-23T06:16:45.549Z,13.15
2022-09-23T06:17:16.887Z,12.93
2022-09-23T06:17:51.059Z,12.75
2022-09-23T06:18:22.577Z,13.98
2022-09-23T06:18:54.217Z,13.77
2022-09-23T06:19:25.549Z,13.80
2022-09-23T06:19:56.937Z,14.73
2022-09-23T06:20:28.525Z,13.38
2022-09-23T06:21:04.193Z,13.93
2022-09-23T06:21:38.399Z,13.43
2022-09-23T06:22:10.949Z,12.60
2022-09-23T06:22:42.330Z,13.40
2022-09-23T06:23:13.726Z,13.50
2022-09-23T06:23:46.084Z,13.90
2022-09-23T06:24:22.107Z,13.60
2022-09-23T06:24:55.202Z,12.00
2022-09-23T06:25:26.536Z,13.65
2022-09-23T06:26:02.086Z,13.23
2022-09-23T06:26:34.597Z,13.45
2022-09-23T06:27:06.563Z,13.43
2022-09-23T06:27:38.056Z,13.60
2022-09-23T06:28:10.859Z,12.83
2022-09-23T06:28:43.964Z,13.38
2022-09-23T06:29:15.320Z,13.35
2022-09-23T06:29:46.713Z,13.57
2022-09-23T06:30:18.085Z,14.18
2022-09-23T06:30:50.543Z,12.02
2022-09-23T06:31:21.902Z,13.68
2022-09-23T06:31:53.458Z,12.82
2022-09-23T06:32:25.115Z,13.50
2022-09-23T06:32:58.055Z,13.55
2022-09-23T06:33:36.455Z,12.27
2022-09-23T06:34:13.976Z,12.43
2022-09-23T06:34:51.557Z,13.05
2022-09-23T06:35:27.881Z,13.18
2022-09-23T06:36:00.852Z,13.05
2022-09-23T06:36:42.403Z,12.73
2022-09-23T06:37:19.949Z,12.48
2022-09-23T06:37:53.093Z,13.43
2022-09-23T06:38:25.840Z,13.63
2022-09-23T06:38:57.298Z,13.30
2022-09-23T06:39:30.006Z,13.77
2022-09-23T06:40:01.763Z,14.18
2022-09-23T06:40:33.230Z,13.25
2022-09-23T06:41:04.954Z,13.27
2022-09-23T06:41:36.381Z,14.13
2022-09-23T06:42:07.923Z,13.70
2022-09-23T06:42:39.598Z,13.02
2022-09-23T06:43:10.961Z,13.88
2022-09-23T06:43:42.410Z,13.20
2022-09-23T06:44:15.056Z,13.38
2022-09-23T06:44:46.551Z,14.03
2022-09-23T06:45:18.029Z,14.18
2022-09-23T06:45:53.632Z,13.57
2022-09-23T06:46:25.538Z,14.77
2022-09-23T06:46:57.071Z,13.70
2022-09-23T06:47:29.130Z,14.57
2022-09-23T06:48:00.963Z,13.80
2022-09-23T06:48:35.920Z,15.25
2022-09-23T06:49:07.452Z,15.15
2022-09-23T06:49:38.818Z,14.32
2022-09-23T06:50:12.970Z,14.77
2022-09-23T06:50:44.511Z,14.15
2022-09-23T06:51:19.412Z,14.45
2022-09-23T06:51:50.987Z,15.32
2022-09-23T06:52:22.314Z,14.07
2022-09-23T06:52:56.455Z,15.50
2022-09-23T06:53:34.934Z,14.00
2022-09-23T06:54:06.460Z,14.40
2022-09-23T06:54:37.977Z,14.93
2022-09-23T06:55:11.267Z,14.35
2022-09-23T06:55:43.094Z,13.93
2022-09-23T06:56:15.381Z,14.18
2022-09-23T06:56:47.409Z,15.43
2022-09-23T06:57:18.889Z,15.15
2022-09-23T06:57:50.981Z,13.75
2022-09-23T06:58:22.305Z,13.90
2022-09-23T06:58:54.625Z,13.55
2022-09-23T06:59:26.127Z,14.13
2022-09-23T06:59:59.057Z,15.40
2022-09-23T07:00:30.382Z,15.55
2022-09-23T07:01:07.280Z,13.20
2022-09-23T07:01:38.954Z,14.38
2022-09-23T07:02:11.346Z,14.38
2022-09-23T07:02:42.898Z,15.00
2022-09-23T07:03:14.305Z,15.15
2022-09-23T07:03:47.431Z,15.05
2022-09-23T07:04:18.878Z,14.90
2022-09-23T07:04:51.227Z,16.00
2022-09-23T07:05:22.938Z,15.20
2022-09-23T07:05:56.086Z,14.35
2022-09-23T07:06:27.435Z,14.77
2022-09-23T07:06:58.853Z,14.07
2022-09-23T07:07:31.420Z,14.48
2022-09-23T07:08:03.254Z,15.93
2022-09-23T07:08:35.345Z,14.60
2022-09-23T07:09:07.557Z,14.52
2022-09-23T07:09:38.960Z,15.40
2022-09-23T07:10:11.862Z,15.57
2022-09-23T07:10:43.260Z,15.80
2022-09-23T07:11:15.910Z,15.02
2022-09-23T07:11:47.448Z,13.97
2022-09-23T07:12:18.954Z,16.05
2022-09-23T07:12:50.338Z,15.50
2022-09-23T07:13:22.229Z,15.57
2022-09-23T07:13:53.782Z,15.98
2022-09-23T07:14:25.170Z,15.13
2022-09-23T07:14:57.338Z,15.40
2022-09-23T07:15:28.896Z,15.35
2022-09-23T07:16:02.048Z,15.07
2022-09-23T07:16:33.698Z,15.00
2022-09-23T07:17:05.247Z,15.13
2022-09-23T07:17:36.857Z,15.38
2022-09-23T07:18:08.244Z,15.75
2022-09-23T07:18:40.710Z,16.00
2022-09-23T07:19:12.933Z,15.00
2022-09-23T07:19:44.330Z,15.10
2022-09-23T07:20:17.863Z,15.15
2022-09-23T07:20:50.000Z,15.05
2022-09-23T07:21:21.494Z,15.63
2022-09-23T07:21:52.840Z,15.48
2022-09-23T07:22:26.365Z,15.07
2022-09-23T07:22:57.719Z,14.95
2022-09-23T07:23:29.073Z,15.02
2022-09-23T07:24:00.764Z,16.23
2022-09-23T07:24:33.640Z,14.80
2022-09-23T07:25:06.132Z,15.27
2022-09-23T07:25:37.610Z,15.25
2022-09-23T07:26:09.100Z,16.13
2022-09-23T07:26:45.466Z,16.38
2022-09-23T07:27:19.845Z,14.68
2022-09-23T07:27:51.258Z,15.70
2022-09-23T07:28:22.631Z,16.17
2022-09-23T07:28:58.099Z,15.35
2022-09-23T07:29:35.753Z,15.57
2022-09-23T07:30:25.744Z,16.00
2022-09-23T07:31:00.560Z,13.48
2022-09-23T07:31:39.111Z,14.85
2022-09-23T07:32:14.399Z,15.05
2022-09-23T07:32:48.957Z,14.65
2022-09-23T07:33:30.520Z,14.75
2022-09-23T07:34:03.500Z,15.10
2022-09-23T07:34:34.873Z,14.70
2022-09-23T07:35:07.086Z,14.52
2022-09-23T07:35:42.268Z,14.38
2022-09-23T07:36:19.505Z,14.63
2022-09-23T07:36:51.092Z,15.15
2022-09-23T07:37:22.694Z,15.40
2022-09-23T07:37:54.071Z,14.75
2022-09-23T07:38:29.833Z,15.32
2022-09-23T07:39:13.198Z,14.68
2022-09-23T07:39:45.278Z,13.50